sensor_id;sensor_type;location;lat;lon;timestamp;pressure;altitude;pressure_sealevel;temperature
63220;BMP180;49320;52.512;13.448;2023-04-03T00:01:12;102529.00;;;8.30
63220;BMP180;49320;52.512;13.448;2023-04-03T00:03:39;102527.00;;;8.30
63220;BMP180;49320;52.512;13.448;2023-04-03T00:06:05;102543.00;;;8.30
63220;BMP180;49320;52.512;13.448;2023-04-03T00:08:34;102542.00;;;8.20
63220;BMP180;49320;52.512;13.448;2023-04-03T00:11:01;102540.00;;;8.20
63220;BMP180;49320;52.512;13.448;2023-04-03T00:13:29;102537.00;;;8.20
63220;BMP180;49320;52.512;13.448;2023-04-03T00:15:56;102542.00;;;8.20
63220;BMP180;49320;52.512;13.448;2023-04-03T00:18:23;102538.00;;;8.20
63220;BMP180;49320;52.512;13.448;2023-04-03T00:20:50;102544.00;;;8.20
63220;BMP180;49320;52.512;13.448;2023-04-03T00:23:17;102545.00;;;8.20
63220;BMP180;49320;52.512;13.448;2023-04-03T00:25:44;102545.00;;;8.30
63220;BMP180;49320;52.512;13.448;2023-04-03T00:28:11;102536.00;;;8.30
63220;BMP180;49320;52.512;13.448;2023-04-03T00:30:38;102543.00;;;8.20
63220;BMP180;49320;52.512;13.448;2023-04-03T00:33:05;102545.00;;;8.20
63220;BMP180;49320;52.512;13.448;2023-04-03T00:35:34;102542.00;;;8.20
63220;BMP180;49320;52.512;13.448;2023-04-03T00:38:01;102550.00;;;8.20
63220;BMP180;49320;52.512;13.448;2023-04-03T00:40:36;102545.00;;;8.20
63220;BMP180;49320;52.512;13.448;2023-04-03T00:43:19;102555.00;;;8.20
63220;BMP180;49320;52.512;13.448;2023-04-03T00:45:52;102546.00;;;8.20
63220;BMP180;49320;52.512;13.448;2023-04-03T00:48:34;102557.00;;;8.20
63220;BMP180;49320;52.512;13.448;2023-04-03T00:51:06;102556.00;;;8.10
63220;BMP180;49320;52.512;13.448;2023-04-03T00:53:43;102545.00;;;8.10
63220;BMP180;49320;52.512;13.448;2023-04-03T00:56:15;102544.00;;;8.10
63220;BMP180;49320;52.512;13.448;2023-04-03T00:58:59;102541.00;;;8.10
63220;BMP180;49320;52.512;13.448;2023-04-03T01:01:29;102544.00;;;8.10
63220;BMP180;49320;52.512;13.448;2023-04-03T01:03:59;102546.00;;;8.10
63220;BMP180;49320;52.512;13.448;2023-04-03T01:06:31;102552.00;;;8.10
63220;BMP180;49320;52.512;13.448;2023-04-03T01:09:00;102553.00;;;8.10
63220;BMP180;49320;52.512;13.448;2023-04-03T01:11:27;102553.00;;;8.00
63220;BMP180;49320;52.512;13.448;2023-04-03T01:13:54;102553.00;;;8.00
63220;BMP180;49320;52.512;13.448;2023-04-03T01:16:21;102550.00;;;8.00
63220;BMP180;49320;52.512;13.448;2023-04-03T01:18:48;102549.00;;;8.00
63220;BMP180;49320;52.512;13.448;2023-04-03T01:21:43;102552.00;;;8.00
63220;BMP180;49320;52.512;13.448;2023-04-03T01:24:38;102544.00;;;8.00
63220;BMP180;49320;52.512;13.448;2023-04-03T01:27:09;102552.00;;;7.90
63220;BMP180;49320;52.512;13.448;2023-04-03T01:29:37;102553.00;;;7.90
63220;BMP180;49320;52.512;13.448;2023-04-03T01:32:04;102551.00;;;7.90
63220;BMP180;49320;52.512;13.448;2023-04-03T01:34:31;102553.00;;;7.90
63220;BMP180;49320;52.512;13.448;2023-04-03T01:36:58;102566.00;;;7.90
63220;BMP180;49320;52.512;13.448;2023-04-03T01:39:25;102562.00;;;7.90
63220;BMP180;49320;52.512;13.448;2023-04-03T01:41:52;102569.00;;;7.90
63220;BMP180;49320;52.512;13.448;2023-04-03T01:44:20;102557.00;;;7.90
63220;BMP180;49320;52.512;13.448;2023-04-03T01:46:47;102564.00;;;7.90
63220;BMP180;49320;52.512;13.448;2023-04-03T01:49:14;102573.00;;;7.90
63220;BMP180;49320;52.512;13.448;2023-04-03T01:51:41;102560.00;;;7.90
63220;BMP180;49320;52.512;13.448;2023-04-03T01:54:08;102572.00;;;7.90
63220;BMP180;49320;52.512;13.448;2023-04-03T01:56:35;102569.00;;;7.90
63220;BMP180;49320;52.512;13.448;2023-04-03T01:59:02;102576.00;;;7.90
63220;BMP180;49320;52.512;13.448;2023-04-03T02:01:29;102572.00;;;7.90
63220;BMP180;49320;52.512;13.448;2023-04-03T02:03:55;102571.00;;;7.80
63220;BMP180;49320;52.512;13.448;2023-04-03T02:06:22;102580.00;;;7.80
63220;BMP180;49320;52.512;13.448;2023-04-03T02:08:49;102580.00;;;7.80
63220;BMP180;49320;52.512;13.448;2023-04-03T02:11:16;102582.00;;;7.70
63220;BMP180;49320;52.512;13.448;2023-04-03T02:13:43;102576.00;;;7.70
63220;BMP180;49320;52.512;13.448;2023-04-03T02:16:11;102576.00;;;7.70
63220;BMP180;49320;52.512;13.448;2023-04-03T02:18:39;102574.00;;;7.70
63220;BMP180;49320;52.512;13.448;2023-04-03T02:21:06;102578.00;;;7.70
63220;BMP180;49320;52.512;13.448;2023-04-03T02:23:33;102577.00;;;7.70
63220;BMP180;49320;52.512;13.448;2023-04-03T02:26:08;102575.00;;;7.60
63220;BMP180;49320;52.512;13.448;2023-04-03T02:28:36;102586.00;;;7.60
63220;BMP180;49320;52.512;13.448;2023-04-03T02:31:04;102585.00;;;7.60
63220;BMP180;49320;52.512;13.448;2023-04-03T02:33:34;102590.00;;;7.60
63220;BMP180;49320;52.512;13.448;2023-04-03T02:36:05;102596.00;;;7.60
63220;BMP180;49320;52.512;13.448;2023-04-03T02:38:32;102599.00;;;7.50
63220;BMP180;49320;52.512;13.448;2023-04-03T02:41:05;102597.00;;;7.60
63220;BMP180;49320;52.512;13.448;2023-04-03T02:43:32;102598.00;;;7.50
63220;BMP180;49320;52.512;13.448;2023-04-03T02:45:59;102594.00;;;7.50
63220;BMP180;49320;52.512;13.448;2023-04-03T02:48:27;102608.00;;;7.50
63220;BMP180;49320;52.512;13.448;2023-04-03T02:50:55;102613.00;;;7.50
63220;BMP180;49320;52.512;13.448;2023-04-03T02:53:22;102602.00;;;7.40
63220;BMP180;49320;52.512;13.448;2023-04-03T02:55:49;102606.00;;;7.40
63220;BMP180;49320;52.512;13.448;2023-04-03T02:58:16;102604.00;;;7.40
63220;BMP180;49320;52.512;13.448;2023-04-03T03:00:42;102608.00;;;7.40
63220;BMP180;49320;52.512;13.448;2023-04-03T03:03:09;102598.00;;;7.30
63220;BMP180;49320;52.512;13.448;2023-04-03T03:05:37;102593.00;;;7.30
63220;BMP180;49320;52.512;13.448;2023-04-03T03:08:04;102610.00;;;7.30
63220;BMP180;49320;52.512;13.448;2023-04-03T03:10:30;102611.00;;;7.30
63220;BMP180;49320;52.512;13.448;2023-04-03T03:12:57;102614.00;;;7.30
63220;BMP180;49320;52.512;13.448;2023-04-03T03:15:24;102613.00;;;7.30
63220;BMP180;49320;52.512;13.448;2023-04-03T03:17:51;102622.00;;;7.30
63220;BMP180;49320;52.512;13.448;2023-04-03T03:20:18;102621.00;;;7.20
63220;BMP180;49320;52.512;13.448;2023-04-03T03:22:45;102622.00;;;7.20
63220;BMP180;49320;52.512;13.448;2023-04-03T03:25:11;102627.00;;;7.20
63220;BMP180;49320;52.512;13.448;2023-04-03T03:27:38;102621.00;;;7.20
63220;BMP180;49320;52.512;13.448;2023-04-03T03:30:06;102629.00;;;7.20
63220;BMP180;49320;52.512;13.448;2023-04-03T03:32:33;102627.00;;;7.10
63220;BMP180;49320;52.512;13.448;2023-04-03T03:35:00;102629.00;;;7.10
63220;BMP180;49320;52.512;13.448;2023-04-03T03:37:27;102622.00;;;7.10
63220;BMP180;49320;52.512;13.448;2023-04-03T03:39:54;102629.00;;;7.10
63220;BMP180;49320;52.512;13.448;2023-04-03T03:42:21;102634.00;;;7.10
63220;BMP180;49320;52.512;13.448;2023-04-03T03:44:48;102630.00;;;7.10
63220;BMP180;49320;52.512;13.448;2023-04-03T03:47:15;102630.00;;;7.10
63220;BMP180;49320;52.512;13.448;2023-04-03T03:49:42;102626.00;;;7.10
63220;BMP180;49320;52.512;13.448;2023-04-03T03:52:09;102632.00;;;7.00
63220;BMP180;49320;52.512;13.448;2023-04-03T03:54:37;102646.00;;;7.00
63220;BMP180;49320;52.512;13.448;2023-04-03T03:57:05;102635.00;;;7.00
63220;BMP180;49320;52.512;13.448;2023-04-03T03:59:32;102623.00;;;7.00
63220;BMP180;49320;52.512;13.448;2023-04-03T04:01:59;102631.00;;;7.00
63220;BMP180;49320;52.512;13.448;2023-04-03T04:04:26;102638.00;;;7.00
63220;BMP180;49320;52.512;13.448;2023-04-03T04:06:53;102631.00;;;7.00
63220;BMP180;49320;52.512;13.448;2023-04-03T04:09:20;102640.00;;;7.00
63220;BMP180;49320;52.512;13.448;2023-04-03T04:11:46;102642.00;;;6.90
63220;BMP180;49320;52.512;13.448;2023-04-03T04:14:13;102633.00;;;6.90
63220;BMP180;49320;52.512;13.448;2023-04-03T04:16:40;102635.00;;;6.90
63220;BMP180;49320;52.512;13.448;2023-04-03T04:19:07;102632.00;;;6.90
63220;BMP180;49320;52.512;13.448;2023-04-03T04:21:34;102643.00;;;6.90
63220;BMP180;49320;52.512;13.448;2023-04-03T04:24:01;102629.00;;;6.80
63220;BMP180;49320;52.512;13.448;2023-04-03T04:26:28;102628.00;;;6.90
63220;BMP180;49320;52.512;13.448;2023-04-03T04:28:55;102640.00;;;6.80
63220;BMP180;49320;52.512;13.448;2023-04-03T04:31:22;102638.00;;;6.80
63220;BMP180;49320;52.512;13.448;2023-04-03T04:33:49;102634.00;;;6.80
63220;BMP180;49320;52.512;13.448;2023-04-03T04:36:16;102641.00;;;6.80
63220;BMP180;49320;52.512;13.448;2023-04-03T04:38:43;102646.00;;;6.80
63220;BMP180;49320;52.512;13.448;2023-04-03T04:41:10;102644.00;;;6.80
63220;BMP180;49320;52.512;13.448;2023-04-03T04:43:37;102646.00;;;6.80
63220;BMP180;49320;52.512;13.448;2023-04-03T04:46:09;102658.00;;;6.80
63220;BMP180;49320;52.512;13.448;2023-04-03T04:48:38;102650.00;;;6.90
63220;BMP180;49320;52.512;13.448;2023-04-03T04:51:05;102654.00;;;6.90
63220;BMP180;49320;52.512;13.448;2023-04-03T04:53:32;102663.00;;;6.90
63220;BMP180;49320;52.512;13.448;2023-04-03T04:55:59;102666.00;;;6.90
63220;BMP180;49320;52.512;13.448;2023-04-03T04:58:26;102670.00;;;6.90
63220;BMP180;49320;52.512;13.448;2023-04-03T05:01:07;102662.00;;;6.90
63220;BMP180;49320;52.512;13.448;2023-04-03T05:03:36;102675.00;;;7.00
63220;BMP180;49320;52.512;13.448;2023-04-03T05:06:03;102672.00;;;7.00
63220;BMP180;49320;52.512;13.448;2023-04-03T05:08:31;102669.00;;;7.00
63220;BMP180;49320;52.512;13.448;2023-04-03T05:10:58;102667.00;;;7.00
63220;BMP180;49320;52.512;13.448;2023-04-03T05:13:25;102680.00;;;7.00
63220;BMP180;49320;52.512;13.448;2023-04-03T05:15:52;102676.00;;;7.00
63220;BMP180;49320;52.512;13.448;2023-04-03T05:18:19;102654.00;;;7.10
63220;BMP180;49320;52.512;13.448;2023-04-03T05:20:49;102680.00;;;7.10
63220;BMP180;49320;52.512;13.448;2023-04-03T05:23:17;102673.00;;;7.10
63220;BMP180;49320;52.512;13.448;2023-04-03T05:25:44;102676.00;;;7.20
63220;BMP180;49320;52.512;13.448;2023-04-03T05:28:13;102673.00;;;7.20
63220;BMP180;49320;52.512;13.448;2023-04-03T05:30:40;102671.00;;;7.30
63220;BMP180;49320;52.512;13.448;2023-04-03T05:33:07;102679.00;;;7.30
63220;BMP180;49320;52.512;13.448;2023-04-03T05:35:36;102681.00;;;7.30
63220;BMP180;49320;52.512;13.448;2023-04-03T05:38:07;102681.00;;;7.30
63220;BMP180;49320;52.512;13.448;2023-04-03T05:40:34;102680.00;;;7.30
63220;BMP180;49320;52.512;13.448;2023-04-03T05:43:01;102685.00;;;7.40
63220;BMP180;49320;52.512;13.448;2023-04-03T05:45:28;102691.00;;;7.40
63220;BMP180;49320;52.512;13.448;2023-04-03T05:47:55;102685.00;;;7.40
63220;BMP180;49320;52.512;13.448;2023-04-03T05:50:22;102696.00;;;7.50
63220;BMP180;49320;52.512;13.448;2023-04-03T05:52:52;102697.00;;;7.50
63220;BMP180;49320;52.512;13.448;2023-04-03T05:55:21;102693.00;;;7.50
63220;BMP180;49320;52.512;13.448;2023-04-03T05:57:48;102694.00;;;7.50
63220;BMP180;49320;52.512;13.448;2023-04-03T06:00:15;102701.00;;;7.50
63220;BMP180;49320;52.512;13.448;2023-04-03T06:02:43;102692.00;;;7.60
63220;BMP180;49320;52.512;13.448;2023-04-03T06:05:10;102705.00;;;7.60
63220;BMP180;49320;52.512;13.448;2023-04-03T06:07:40;102692.00;;;7.60
63220;BMP180;49320;52.512;13.448;2023-04-03T06:10:07;102704.00;;;7.60
63220;BMP180;49320;52.512;13.448;2023-04-03T06:12:35;102701.00;;;7.70
63220;BMP180;49320;52.512;13.448;2023-04-03T06:15:02;102700.00;;;7.70
63220;BMP180;49320;52.512;13.448;2023-04-03T06:17:30;102717.00;;;7.80
63220;BMP180;49320;52.512;13.448;2023-04-03T06:19:57;102706.00;;;7.80
63220;BMP180;49320;52.512;13.448;2023-04-03T06:22:25;102707.00;;;7.80
63220;BMP180;49320;52.512;13.448;2023-04-03T06:24:52;102708.00;;;7.90
63220;BMP180;49320;52.512;13.448;2023-04-03T06:27:19;102720.00;;;8.00
63220;BMP180;49320;52.512;13.448;2023-04-03T06:29:46;102717.00;;;8.00
63220;BMP180;49320;52.512;13.448;2023-04-03T06:32:12;102717.00;;;8.10
63220;BMP180;49320;52.512;13.448;2023-04-03T06:34:39;102709.00;;;8.10
63220;BMP180;49320;52.512;13.448;2023-04-03T06:37:06;102710.00;;;8.20
63220;BMP180;49320;52.512;13.448;2023-04-03T06:39:33;102719.00;;;8.30
63220;BMP180;49320;52.512;13.448;2023-04-03T06:42:00;102716.00;;;8.30
63220;BMP180;49320;52.512;13.448;2023-04-03T06:44:27;102716.00;;;8.40
63220;BMP180;49320;52.512;13.448;2023-04-03T06:46:54;102724.00;;;8.40
63220;BMP180;49320;52.512;13.448;2023-04-03T06:49:21;102720.00;;;8.40
63220;BMP180;49320;52.512;13.448;2023-04-03T06:51:48;102731.00;;;8.50
63220;BMP180;49320;52.512;13.448;2023-04-03T06:54:15;102739.00;;;8.50
63220;BMP180;49320;52.512;13.448;2023-04-03T06:56:42;102747.00;;;8.50
63220;BMP180;49320;52.512;13.448;2023-04-03T06:59:11;102739.00;;;8.60
63220;BMP180;49320;52.512;13.448;2023-04-03T07:01:39;102752.00;;;8.60
63220;BMP180;49320;52.512;13.448;2023-04-03T07:04:07;102751.00;;;8.60
63220;BMP180;49320;52.512;13.448;2023-04-03T07:06:35;102740.00;;;8.70
63220;BMP180;49320;52.512;13.448;2023-04-03T07:09:02;102741.00;;;8.70
63220;BMP180;49320;52.512;13.448;2023-04-03T07:11:29;102755.00;;;8.80
63220;BMP180;49320;52.512;13.448;2023-04-03T07:13:57;102764.00;;;8.80
63220;BMP180;49320;52.512;13.448;2023-04-03T07:16:24;102752.00;;;8.90
63220;BMP180;49320;52.512;13.448;2023-04-03T07:18:51;102752.00;;;9.00
63220;BMP180;49320;52.512;13.448;2023-04-03T07:21:18;102761.00;;;9.10
63220;BMP180;49320;52.512;13.448;2023-04-03T07:23:45;102750.00;;;9.10
63220;BMP180;49320;52.512;13.448;2023-04-03T07:26:12;102757.00;;;9.30
63220;BMP180;49320;52.512;13.448;2023-04-03T07:28:39;102763.00;;;9.40
63220;BMP180;49320;52.512;13.448;2023-04-03T07:31:11;102766.00;;;9.50
63220;BMP180;49320;52.512;13.448;2023-04-03T07:33:41;102781.00;;;9.60
63220;BMP180;49320;52.512;13.448;2023-04-03T07:36:10;102767.00;;;9.70
63220;BMP180;49320;52.512;13.448;2023-04-03T07:38:37;102761.00;;;9.70
63220;BMP180;49320;52.512;13.448;2023-04-03T07:41:04;102762.00;;;9.80
63220;BMP180;49320;52.512;13.448;2023-04-03T07:43:32;102763.00;;;9.80
63220;BMP180;49320;52.512;13.448;2023-04-03T07:46:00;102765.00;;;9.90
63220;BMP180;49320;52.512;13.448;2023-04-03T07:48:27;102768.00;;;9.90
63220;BMP180;49320;52.512;13.448;2023-04-03T07:51:00;102775.00;;;10.00
63220;BMP180;49320;52.512;13.448;2023-04-03T07:53:28;102775.00;;;10.10
63220;BMP180;49320;52.512;13.448;2023-04-03T07:55:57;102775.00;;;10.10
63220;BMP180;49320;52.512;13.448;2023-04-03T07:58:24;102767.00;;;10.20
63220;BMP180;49320;52.512;13.448;2023-04-03T08:00:52;102771.00;;;10.20
63220;BMP180;49320;52.512;13.448;2023-04-03T08:03:19;102765.00;;;10.20
63220;BMP180;49320;52.512;13.448;2023-04-03T08:05:48;102771.00;;;10.30
63220;BMP180;49320;52.512;13.448;2023-04-03T08:08:22;102763.00;;;10.30
63220;BMP180;49320;52.512;13.448;2023-04-03T08:10:51;102767.00;;;10.40
63220;BMP180;49320;52.512;13.448;2023-04-03T08:13:19;102768.00;;;10.50
63220;BMP180;49320;52.512;13.448;2023-04-03T08:15:46;102773.00;;;10.60
63220;BMP180;49320;52.512;13.448;2023-04-03T08:18:14;102769.00;;;10.70
63220;BMP180;49320;52.512;13.448;2023-04-03T08:20:43;102770.00;;;10.70
63220;BMP180;49320;52.512;13.448;2023-04-03T08:23:10;102772.00;;;10.80
63220;BMP180;49320;52.512;13.448;2023-04-03T08:25:39;102786.00;;;10.80
63220;BMP180;49320;52.512;13.448;2023-04-03T08:28:08;102772.00;;;10.90
63220;BMP180;49320;52.512;13.448;2023-04-03T08:30:35;102775.00;;;10.90
63220;BMP180;49320;52.512;13.448;2023-04-03T08:33:03;102765.00;;;10.90
63220;BMP180;49320;52.512;13.448;2023-04-03T08:35:30;102776.00;;;11.00
63220;BMP180;49320;52.512;13.448;2023-04-03T08:37:57;102762.00;;;10.90
63220;BMP180;49320;52.512;13.448;2023-04-03T08:40:24;102762.00;;;10.90
63220;BMP180;49320;52.512;13.448;2023-04-03T08:45:50;102766.00;;;11.10
63220;BMP180;49320;52.512;13.448;2023-04-03T08:48:32;102759.00;;;11.10
63220;BMP180;49320;52.512;13.448;2023-04-03T08:51:04;102769.00;;;11.10
63220;BMP180;49320;52.512;13.448;2023-04-03T08:53:45;102771.00;;;11.10
63220;BMP180;49320;52.512;13.448;2023-04-03T08:56:18;102769.00;;;11.10
63220;BMP180;49320;52.512;13.448;2023-04-03T08:59:04;102771.00;;;11.10
63220;BMP180;49320;52.512;13.448;2023-04-03T09:01:40;102777.00;;;11.20
63220;BMP180;49320;52.512;13.448;2023-04-03T09:04:13;102778.00;;;11.20
63220;BMP180;49320;52.512;13.448;2023-04-03T09:06:52;102774.00;;;11.20
63220;BMP180;49320;52.512;13.448;2023-04-03T09:09:39;102766.00;;;11.20
63220;BMP180;49320;52.512;13.448;2023-04-03T09:18:05;102768.00;;;11.20
63220;BMP180;49320;52.512;13.448;2023-04-03T09:23:51;102767.00;;;11.40
63220;BMP180;49320;52.512;13.448;2023-04-03T09:26:34;102768.00;;;11.40
63220;BMP180;49320;52.512;13.448;2023-04-03T09:29:06;102768.00;;;11.40
63220;BMP180;49320;52.512;13.448;2023-04-03T09:31:41;102775.00;;;11.40
63220;BMP180;49320;52.512;13.448;2023-04-03T09:34:24;102770.00;;;11.40
63220;BMP180;49320;52.512;13.448;2023-04-03T09:36:56;102767.00;;;11.50
63220;BMP180;49320;52.512;13.448;2023-04-03T09:39:27;102764.00;;;11.60
63220;BMP180;49320;52.512;13.448;2023-04-03T09:42:24;102751.00;;;11.70
63220;BMP180;49320;52.512;13.448;2023-04-03T09:45:02;102760.00;;;11.90
63220;BMP180;49320;52.512;13.448;2023-04-03T09:47:35;102762.00;;;11.90
63220;BMP180;49320;52.512;13.448;2023-04-03T09:50:20;102751.00;;;12.00
63220;BMP180;49320;52.512;13.448;2023-04-03T09:52:51;102756.00;;;12.10
63220;BMP180;49320;52.512;13.448;2023-04-03T09:55:26;102757.00;;;12.20
63220;BMP180;49320;52.512;13.448;2023-04-03T09:58:01;102766.00;;;12.10
63220;BMP180;49320;52.512;13.448;2023-04-03T10:00:39;102743.00;;;12.10
63220;BMP180;49320;52.512;13.448;2023-04-03T10:03:35;102767.00;;;12.10
63220;BMP180;49320;52.512;13.448;2023-04-03T10:06:04;102750.00;;;12.20
63220;BMP180;49320;52.512;13.448;2023-04-03T10:08:35;102746.00;;;12.20
63220;BMP180;49320;52.512;13.448;2023-04-03T10:11:13;102746.00;;;12.20
63220;BMP180;49320;52.512;13.448;2023-04-03T10:13:56;102745.00;;;12.20
63220;BMP180;49320;52.512;13.448;2023-04-03T10:16:38;102744.00;;;12.20
63220;BMP180;49320;52.512;13.448;2023-04-03T10:19:34;102761.00;;;12.30
63220;BMP180;49320;52.512;13.448;2023-04-03T10:22:37;102736.00;;;12.30
63220;BMP180;49320;52.512;13.448;2023-04-03T10:25:21;102738.00;;;12.40
63220;BMP180;49320;52.512;13.448;2023-04-03T10:31:15;102735.00;;;12.40
63220;BMP180;49320;52.512;13.448;2023-04-03T10:34:28;102736.00;;;12.40
63220;BMP180;49320;52.512;13.448;2023-04-03T10:39:53;102717.00;;;12.70
63220;BMP180;49320;52.512;13.448;2023-04-03T10:48:40;102722.00;;;12.90
63220;BMP180;49320;52.512;13.448;2023-04-03T10:54:59;102717.00;;;13.00
63220;BMP180;49320;52.512;13.448;2023-04-03T10:57:29;102714.00;;;13.00
63220;BMP180;49320;52.512;13.448;2023-04-03T11:00:03;102704.00;;;13.00
63220;BMP180;49320;52.512;13.448;2023-04-03T11:02:55;102704.00;;;13.10
63220;BMP180;49320;52.512;13.448;2023-04-03T11:05:42;102705.00;;;13.10
63220;BMP180;49320;52.512;13.448;2023-04-03T11:08:44;102710.00;;;13.20
63220;BMP180;49320;52.512;13.448;2023-04-03T11:11:33;102710.00;;;13.20
63220;BMP180;49320;52.512;13.448;2023-04-03T11:14:24;102701.00;;;13.20
63220;BMP180;49320;52.512;13.448;2023-04-03T11:17:08;102699.00;;;13.20
63220;BMP180;49320;52.512;13.448;2023-04-03T11:20:03;102699.00;;;13.20
63220;BMP180;49320;52.512;13.448;2023-04-03T11:22:45;102700.00;;;13.30
63220;BMP180;49320;52.512;13.448;2023-04-03T11:25:24;102692.00;;;13.30
63220;BMP180;49320;52.512;13.448;2023-04-03T11:28:09;102697.00;;;13.30
63220;BMP180;49320;52.512;13.448;2023-04-03T11:34:11;102698.00;;;13.10
63220;BMP180;49320;52.512;13.448;2023-04-03T11:36:49;102691.00;;;13.10
63220;BMP180;49320;52.512;13.448;2023-04-03T11:39:31;102700.00;;;13.20
63220;BMP180;49320;52.512;13.448;2023-04-03T11:42:34;102708.00;;;13.20
63220;BMP180;49320;52.512;13.448;2023-04-03T11:47:54;102700.00;;;13.20
63220;BMP180;49320;52.512;13.448;2023-04-03T11:50:42;102687.00;;;13.20
63220;BMP180;49320;52.512;13.448;2023-04-03T11:53:36;102694.00;;;13.20
63220;BMP180;49320;52.512;13.448;2023-04-03T11:56:27;102702.00;;;13.10
63220;BMP180;49320;52.512;13.448;2023-04-03T12:01:48;102695.00;;;13.10
63220;BMP180;49320;52.512;13.448;2023-04-03T12:04:18;102685.00;;;13.10
63220;BMP180;49320;52.512;13.448;2023-04-03T12:11:59;102696.00;;;13.20
63220;BMP180;49320;52.512;13.448;2023-04-03T12:14:28;102691.00;;;13.10
63220;BMP180;49320;52.512;13.448;2023-04-03T12:16:57;102685.00;;;13.10
63220;BMP180;49320;52.512;13.448;2023-04-03T12:19:37;102682.00;;;13.10
63220;BMP180;49320;52.512;13.448;2023-04-03T12:22:14;102688.00;;;13.00
63220;BMP180;49320;52.512;13.448;2023-04-03T12:24:45;102695.00;;;12.90
63220;BMP180;49320;52.512;13.448;2023-04-03T12:27:28;102690.00;;;12.90
63220;BMP180;49320;52.512;13.448;2023-04-03T12:36:15;102670.00;;;12.80
63220;BMP180;49320;52.512;13.448;2023-04-03T12:39:13;102679.00;;;12.80
63220;BMP180;49320;52.512;13.448;2023-04-03T12:42:24;102681.00;;;12.90
63220;BMP180;49320;52.512;13.448;2023-04-03T12:45:20;102678.00;;;12.90
63220;BMP180;49320;52.512;13.448;2023-04-03T12:47:55;102668.00;;;12.80
63220;BMP180;49320;52.512;13.448;2023-04-03T12:50:28;102664.00;;;12.80
63220;BMP180;49320;52.512;13.448;2023-04-03T12:53:04;102668.00;;;12.80
63220;BMP180;49320;52.512;13.448;2023-04-03T12:55:32;102679.00;;;12.80
63220;BMP180;49320;52.512;13.448;2023-04-03T12:58:23;102658.00;;;12.80
63220;BMP180;49320;52.512;13.448;2023-04-03T13:01:11;102674.00;;;12.80
63220;BMP180;49320;52.512;13.448;2023-04-03T13:03:43;102666.00;;;12.80
63220;BMP180;49320;52.512;13.448;2023-04-03T13:06:23;102671.00;;;12.80
63220;BMP180;49320;52.512;13.448;2023-04-03T13:08:58;102664.00;;;12.80
63220;BMP180;49320;52.512;13.448;2023-04-03T13:11:41;102653.00;;;12.80
63220;BMP180;49320;52.512;13.448;2023-04-03T13:14:21;102664.00;;;12.80
63220;BMP180;49320;52.512;13.448;2023-04-03T13:17:11;102654.00;;;12.90
63220;BMP180;49320;52.512;13.448;2023-04-03T13:19:39;102666.00;;;12.80
63220;BMP180;49320;52.512;13.448;2023-04-03T13:22:33;102656.00;;;12.80
63220;BMP180;49320;52.512;13.448;2023-04-03T13:25:09;102651.00;;;12.80
63220;BMP180;49320;52.512;13.448;2023-04-03T13:27:38;102653.00;;;12.80
63220;BMP180;49320;52.512;13.448;2023-04-03T13:30:17;102656.00;;;12.80
63220;BMP180;49320;52.512;13.448;2023-04-03T13:32:47;102656.00;;;12.80
63220;BMP180;49320;52.512;13.448;2023-04-03T13:35:39;102647.00;;;12.80
63220;BMP180;49320;52.512;13.448;2023-04-03T13:38:25;102646.00;;;12.70
63220;BMP180;49320;52.512;13.448;2023-04-03T13:40:56;102635.00;;;12.70
63220;BMP180;49320;52.512;13.448;2023-04-03T13:43:30;102650.00;;;12.70
63220;BMP180;49320;52.512;13.448;2023-04-03T13:46:25;102640.00;;;12.70
63220;BMP180;49320;52.512;13.448;2023-04-03T13:48:55;102642.00;;;12.70
63220;BMP180;49320;52.512;13.448;2023-04-03T13:51:30;102645.00;;;12.70
63220;BMP180;49320;52.512;13.448;2023-04-03T13:54:17;102643.00;;;12.70
63220;BMP180;49320;52.512;13.448;2023-04-03T13:56:45;102624.00;;;12.70
63220;BMP180;49320;52.512;13.448;2023-04-03T14:04:46;102643.00;;;12.60
63220;BMP180;49320;52.512;13.448;2023-04-03T14:07:16;102627.00;;;12.60
63220;BMP180;49320;52.512;13.448;2023-04-03T14:09:44;102641.00;;;12.50
63220;BMP180;49320;52.512;13.448;2023-04-03T14:12:30;102631.00;;;12.60
63220;BMP180;49320;52.512;13.448;2023-04-03T14:15:10;102628.00;;;12.60
63220;BMP180;49320;52.512;13.448;2023-04-03T14:17:38;102624.00;;;12.60
63220;BMP180;49320;52.512;13.448;2023-04-03T14:20:06;102632.00;;;12.60
63220;BMP180;49320;52.512;13.448;2023-04-03T14:22:34;102635.00;;;12.70
63220;BMP180;49320;52.512;13.448;2023-04-03T14:25:02;102623.00;;;12.70
63220;BMP180;49320;52.512;13.448;2023-04-03T14:27:39;102629.00;;;12.70
63220;BMP180;49320;52.512;13.448;2023-04-03T14:30:25;102619.00;;;12.70
63220;BMP180;49320;52.512;13.448;2023-04-03T14:32:53;102622.00;;;12.80
63220;BMP180;49320;52.512;13.448;2023-04-03T14:35:21;102626.00;;;12.80
63220;BMP180;49320;52.512;13.448;2023-04-03T14:37:49;102621.00;;;12.80
63220;BMP180;49320;52.512;13.448;2023-04-03T14:40:26;102621.00;;;12.80
63220;BMP180;49320;52.512;13.448;2023-04-03T14:42:53;102619.00;;;12.80
63220;BMP180;49320;52.512;13.448;2023-04-03T14:45:23;102621.00;;;12.80
63220;BMP180;49320;52.512;13.448;2023-04-03T14:47:54;102615.00;;;12.80
63220;BMP180;49320;52.512;13.448;2023-04-03T14:50:25;102620.00;;;12.70
63220;BMP180;49320;52.512;13.448;2023-04-03T14:52:55;102612.00;;;12.70
63220;BMP180;49320;52.512;13.448;2023-04-03T14:55:24;102617.00;;;12.70
63220;BMP180;49320;52.512;13.448;2023-04-03T14:57:52;102607.00;;;12.60
63220;BMP180;49320;52.512;13.448;2023-04-03T15:00:22;102621.00;;;12.60
63220;BMP180;49320;52.512;13.448;2023-04-03T15:02:49;102611.00;;;12.50
63220;BMP180;49320;52.512;13.448;2023-04-03T15:05:16;102615.00;;;12.50
63220;BMP180;49320;52.512;13.448;2023-04-03T15:07:49;102621.00;;;12.50
63220;BMP180;49320;52.512;13.448;2023-04-03T15:10:24;102625.00;;;12.50
63220;BMP180;49320;52.512;13.448;2023-04-03T15:12:51;102621.00;;;12.50